Time;durP1;ratioP1;P1;durP2;ratioP2;P2;SDS_P1;SDS_P2;PMS_P1;PMS_P2;Temp;Humidity;BMP_temperature;BMP_pressure;BME280_temperature;BME280_humidity;BME280_pressure;Samples;Min_cycle;Max_cycle;Signal;HPM_P1;HPM_P2
2021/09/24 00:01:45;;;;;;;2.13;2.03;;;;;;;21.52;47.58;98627.19;5055530;28;20199;-56
2021/09/24 00:04:12;;;;;;;2.40;2.03;;;;;;;21.53;47.40;98626.19;5055461;28;20217;-55
2021/09/24 00:06:41;;;;;;;2.17;1.97;;;;;;;21.53;47.80;98632.34;5055662;28;20662;-56
2021/09/24 00:09:08;;;;;;;2.03;1.93;;;;;;;21.55;47.71;98627.69;5055273;28;20220;-51
2021/09/24 00:11:36;;;;;;;2.20;2.10;;;;;;;21.54;47.51;98623.38;5054231;28;20181;-54
2021/09/24 00:14:03;;;;;;;2.30;2.10;;;;;;;21.58;47.61;98628.31;5055246;28;20220;-54
2021/09/24 00:16:30;;;;;;;2.13;2.03;;;;;;;21.59;47.59;98622.00;5055413;28;20211;-53
2021/09/24 00:18:57;;;;;;;2.00;1.90;;;;;;;21.56;47.37;98628.53;5055330;28;20256;-55
2021/09/24 00:21:24;;;;;;;1.90;1.80;;;;;;;21.53;47.44;98624.38;5055112;28;20200;-53
2021/09/24 00:23:50;;;;;;;2.40;2.20;;;;;;;21.52;47.63;98628.03;5054240;28;20186;-54
2021/09/24 00:26:17;;;;;;;2.13;2.03;;;;;;;21.53;47.74;98628.84;5054994;28;20191;-52
2021/09/24 00:28:46;;;;;;;2.40;2.20;;;;;;;21.54;47.38;98626.03;5054837;28;20216;-53
2021/09/24 00:31:12;;;;;;;2.10;2.00;;;;;;;21.54;47.38;98634.00;5054763;28;20206;-54
2021/09/24 00:33:39;;;;;;;2.20;2.10;;;;;;;21.53;47.20;98632.34;5055134;28;20613;-54
2021/09/24 00:36:06;;;;;;;2.57;2.37;;;;;;;21.52;47.63;98633.34;5053717;28;20197;-52
2021/09/24 00:38:38;;;;;;;2.23;2.03;;;;;;;21.54;47.66;98633.16;5054801;28;20209;-54
2021/09/24 00:41:08;;;;;;;2.00;1.80;;;;;;;21.54;47.25;98631.34;5053945;28;20178;-56
2021/09/24 00:43:35;;;;;;;2.47;2.27;;;;;;;21.54;47.27;98628.69;5055584;28;20184;-56
2021/09/24 00:46:02;;;;;;;2.07;1.87;;;;;;;21.56;47.19;98634.63;5054695;28;20659;-56
2021/09/24 00:48:30;;;;;;;2.00;1.90;;;;;;;21.55;47.21;98633.00;5054571;28;20217;-56
2021/09/24 00:50:57;;;;;;;2.40;2.23;;;;;;;21.55;47.11;98638.31;5054554;28;20198;-56
2021/09/24 00:53:24;;;;;;;2.17;2.07;;;;;;;21.56;47.37;98642.59;5053511;28;20218;-56
2021/09/24 00:55:51;;;;;;;2.50;2.20;;;;;;;21.54;47.45;98631.34;5054777;28;20660;-56
2021/09/24 00:58:17;;;;;;;2.40;2.20;;;;;;;21.53;47.34;98631.50;5054532;28;20224;-56
2021/09/24 01:00:44;;;;;;;2.10;2.00;;;;;;;21.52;47.51;98628.03;5053159;28;20198;-56
2021/09/24 01:03:11;;;;;;;2.20;2.10;;;;;;;21.50;47.46;98627.38;5054338;28;20216;-56
2021/09/24 01:05:38;;;;;;;2.03;1.93;;;;;;;21.50;47.48;98623.91;5054300;28;20189;-57
2021/09/24 01:08:04;;;;;;;2.10;2.00;;;;;;;21.47;47.42;98622.44;5054237;28;20212;-57
2021/09/24 01:18:55;;;;;;;1.93;1.80;;;;;;;21.54;47.13;98603.94;5053854;28;20594;-57
2021/09/24 01:21:23;;;;;;;1.97;1.83;;;;;;;21.53;47.39;98604.94;5054063;28;20208;-54
2021/09/24 01:23:49;;;;;;;2.23;2.03;;;;;;;21.54;47.37;98604.78;5052823;28;20181;-56
2021/09/24 01:26:16;;;;;;;2.20;2.10;;;;;;;21.55;47.20;98605.59;5053882;28;20601;-57
2021/09/24 01:28:44;;;;;;;2.10;2.00;;;;;;;21.55;47.26;98611.75;5053803;28;20209;-56
2021/09/24 01:31:12;;;;;;;2.00;1.90;;;;;;;21.55;47.03;98601.13;5053732;28;20198;-54
2021/09/24 01:33:43;;;;;;;2.20;2.00;;;;;;;21.54;47.40;98603.94;5053730;28;20203;-55
2021/09/24 01:36:10;;;;;;;1.93;1.83;;;;;;;21.49;47.25;98601.00;5053957;28;20199;-56
2021/09/24 01:38:38;;;;;;;1.80;1.70;;;;;;;21.47;47.35;98603.84;5053609;28;20238;-54
2021/09/24 01:41:06;;;;;;;2.50;2.30;;;;;;;21.48;47.22;98599.34;5053570;28;20551;-55
2021/09/24 01:43:34;;;;;;;2.30;2.10;;;;;;;21.47;47.40;98606.50;5053664;28;20185;-56
2021/09/24 01:46:02;;;;;;;2.20;2.10;;;;;;;21.47;47.33;98603.00;5053578;28;20197;-56
2021/09/24 01:48:28;;;;;;;2.40;2.20;;;;;;;21.46;47.59;98602.16;5053495;28;20629;-57
2021/09/24 01:50:55;;;;;;;2.00;1.90;;;;;;;21.48;47.38;98594.03;5053499;28;20192;-54
2021/09/24 01:53:22;;;;;;;2.10;2.00;;;;;;;21.46;47.59;98602.16;5053849;28;20207;-56
2021/09/24 01:55:49;;;;;;;2.10;2.00;;;;;;;21.52;47.07;98601.47;5054022;28;20199;-56
2021/09/24 01:58:18;;;;;;;2.33;2.20;;;;;;;21.52;47.34;98601.47;5053282;28;20251;-54
2021/09/24 02:00:45;;;;;;;2.10;2.00;;;;;;;21.52;47.44;98598.81;5053606;28;20679;-56
2021/09/24 02:03:11;;;;;;;2.13;1.90;;;;;;;21.52;47.08;98590.88;5053264;28;20188;-56
2021/09/24 02:05:38;;;;;;;2.07;1.93;;;;;;;21.53;47.32;98592.50;5053230;28;20665;-56
2021/09/24 02:08:05;;;;;;;2.00;1.90;;;;;;;21.54;47.31;98588.84;5051968;28;20611;-56
2021/09/24 02:10:32;;;;;;;2.07;1.97;;;;;;;21.59;46.95;98590.13;5053165;28;20272;-56
2021/09/24 02:13:01;;;;;;;2.20;2.10;;;;;;;21.60;47.07;98594.44;5053063;28;20196;-56
2021/09/24 02:15:28;;;;;;;1.90;1.80;;;;;;;21.62;47.01;98589.78;5051980;28;20200;-56
2021/09/24 02:17:54;;;;;;;2.20;2.10;;;;;;;21.62;46.78;98590.63;5053257;28;20213;-56
2021/09/24 02:20:24;;;;;;;2.00;1.90;;;;;;;21.62;47.00;98589.78;5053054;28;20187;-57
2021/09/24 02:22:51;;;;;;;2.20;2.00;;;;;;;21.64;46.75;98593.09;5053320;28;20211;-56
2021/09/24 02:25:18;;;;;;;2.10;2.00;;;;;;;21.61;47.15;98591.63;5053289;28;20189;-56
2021/09/24 02:27:44;;;;;;;2.10;2.00;;;;;;;21.59;46.94;98592.78;5051643;28;20209;-56
2021/09/24 02:30:12;;;;;;;2.00;1.90;;;;;;;21.56;46.95;98583.38;5053183;28;20673;-56
2021/09/24 02:32:38;;;;;;;2.10;2.00;;;;;;;21.60;46.95;98583.81;5052883;28;20201;-56
2021/09/24 02:35:07;;;;;;;2.00;1.90;;;;;;;21.60;47.13;98578.50;5052841;28;20213;-56
2021/09/24 02:37:33;;;;;;;1.80;1.70;;;;;;;21.60;46.87;98581.16;5052805;28;20199;-56
2021/09/24 02:40:00;;;;;;;2.43;2.23;;;;;;;21.60;46.95;98583.81;5052831;28;20197;-56
2021/09/24 02:42:26;;;;;;;2.10;2.00;;;;;;;21.59;47.18;98567.09;5052751;28;20191;-55
2021/09/24 02:44:53;;;;;;;2.00;1.90;;;;;;;21.54;46.89;98575.56;5052836;28;20187;-56
2021/09/24 02:47:20;;;;;;;2.07;1.97;;;;;;;21.52;46.93;98569.63;5052693;28;20238;-57
2021/09/24 02:49:48;;;;;;;2.07;1.97;;;;;;;21.53;47.14;98565.13;5052694;28;20203;-55
2021/09/24 02:52:15;;;;;;;1.87;1.77;;;;;;;21.51;47.11;98569.78;5052755;28;20196;-56
2021/09/24 02:54:41;;;;;;;1.93;1.83;;;;;;;21.51;47.32;98575.94;5055988;28;20260;-56
2021/09/24 02:57:08;;;;;;;2.20;2.00;;;;;;;21.49;47.15;98572.63;5056784;28;20200;-56
2021/09/24 02:59:34;;;;;;;1.97;1.87;;;;;;;21.45;47.48;98568.66;5056686;28;20212;-57
2021/09/24 03:02:01;;;;;;;2.23;2.10;;;;;;;21.45;47.07;98571.31;5056881;28;20202;-56
2021/09/24 03:04:28;;;;;;;2.10;2.00;;;;;;;21.43;46.97;98565.38;5056900;28;20269;-56
2021/09/24 03:06:55;;;;;;;2.40;2.20;;;;;;;21.44;47.27;98567.00;5055682;28;20244;-56
2021/09/24 03:09:21;;;;;;;2.00;1.90;;;;;;;21.46;47.11;98564.19;5056544;28;20213;-57
2021/09/24 03:11:48;;;;;;;1.97;1.87;;;;;;;21.48;47.00;98565.69;5056805;28;20198;-57
2021/09/24 03:14:14;;;;;;;2.10;2.00;;;;;;;21.49;47.13;98567.31;5056606;28;20209;-56
2021/09/24 03:16:42;;;;;;;1.90;1.50;;;;;;;21.47;47.36;98565.84;5056390;28;20195;-56
2021/09/24 03:19:09;;;;;;;2.00;1.90;;;;;;;21.47;47.12;98553.41;5056289;28;20234;-57
2021/09/24 03:21:36;;;;;;;2.20;2.10;;;;;;;21.47;47.24;98566.69;5056362;28;20197;-56
2021/09/24 03:24:03;;;;;;;2.00;1.90;;;;;;;21.45;47.00;98571.31;5056231;28;20656;-54
2021/09/24 03:26:31;;;;;;;2.47;2.27;;;;;;;21.44;47.08;98560.91;5056191;28;20557;-56
2021/09/24 03:28:58;;;;;;;2.07;1.97;;;;;;;21.44;47.06;98572.31;5056063;28;20209;-57
2021/09/24 03:31:24;;;;;;;2.00;1.90;;;;;;;21.42;47.10;98569.03;5055890;28;20197;-56
2021/09/24 03:33:51;;;;;;;2.17;2.00;;;;;;;21.43;47.40;98560.06;5056002;28;20214;-56
2021/09/24 03:36:17;;;;;;;2.20;2.10;;;;;;;21.41;47.32;98562.91;5056010;28;20586;-56
2021/09/24 03:38:44;;;;;;;2.20;2.10;;;;;;;21.44;47.19;98558.25;5055957;28;20614;-56
2021/09/24 03:41:10;;;;;;;2.00;1.90;;;;;;;21.43;47.13;98560.06;5056034;28;20188;-56
2021/09/24 03:43:38;;;;;;;1.83;1.73;;;;;;;21.41;47.21;98557.59;5055858;28;20555;-56
2021/09/24 03:46:04;;;;;;;1.80;1.70;;;;;;;21.42;47.19;98553.94;5055855;28;20226;-53
2021/09/24 03:48:31;;;;;;;1.83;1.73;;;;;;;21.41;47.25;98565.56;5055682;28;20701;-56
2021/09/24 03:50:58;;;;;;;1.80;1.70;;;;;;;21.39;47.17;98564.06;5055759;28;20246;-56
2021/09/24 03:53:24;;;;;;;2.03;1.93;;;;;;;21.39;47.45;98558.75;5055177;28;20210;-56
2021/09/24 03:55:53;;;;;;;1.97;1.87;;;;;;;21.41;47.29;98562.06;5055675;28;20181;-56
2021/09/24 03:58:20;;;;;;;2.00;1.90;;;;;;;21.41;47.34;98567.38;5054465;28;20211;-56
2021/09/24 04:00:47;;;;;;;2.10;2.00;;;;;;;21.42;47.28;98563.72;5055539;28;20188;-56
2021/09/24 04:03:14;;;;;;;2.03;1.90;;;;;;;21.44;47.33;98567.00;5055593;28;20253;-56
2021/09/24 04:05:41;;;;;;;2.13;1.93;;;;;;;21.37;47.46;98566.09;5054979;28;20669;-57
2021/09/24 04:08:08;;;;;;;2.00;1.90;;;;;;;21.34;47.44;98571.75;5055561;28;20701;-56
2021/09/24 04:10:34;;;;;;;1.90;1.80;;;;;;;21.33;47.30;98570.09;5055343;28;20235;-56
2021/09/24 04:13:01;;;;;;;2.00;1.90;;;;;;;21.32;47.48;98579.88;5055294;28;20189;-56
2021/09/24 04:15:27;;;;;;;1.67;1.57;;;;;;;21.37;47.54;98574.03;5055458;28;20678;-56
2021/09/24 04:17:54;;;;;;;2.00;1.90;;;;;;;21.36;47.13;98575.06;5055324;28;20207;-56
2021/09/24 04:20:20;;;;;;;2.10;2.00;;;;;;;21.37;47.34;98582.00;5055149;28;20209;-56
2021/09/24 04:22:47;;;;;;;1.80;1.70;;;;;;;21.38;47.11;98586.31;5055436;28;20196;-56
2021/09/24 04:25:13;;;;;;;1.97;1.87;;;;;;;21.37;47.49;98576.69;5053800;28;20200;-54
2021/09/24 04:27:40;;;;;;;1.87;1.77;;;;;;;21.36;47.00;98573.22;5055008;28;20214;-56
2021/09/24 04:30:07;;;;;;;2.10;2.00;;;;;;;21.37;47.18;98582.00;5055512;28;20564;-56
2021/09/24 04:32:34;;;;;;;2.00;1.90;;;;;;;21.37;47.06;98582.81;5055019;28;20565;-56
2021/09/24 04:35:01;;;;;;;2.20;2.10;;;;;;;21.36;47.08;98583.81;5055111;28;20209;-56
2021/09/24 04:37:28;;;;;;;2.03;1.93;;;;;;;21.36;47.25;98581.16;5053601;28;20222;-56
2021/09/24 04:39:54;;;;;;;2.03;1.93;;;;;;;21.35;47.20;98576.06;5054927;28;20212;-56
2021/09/24 04:42:21;;;;;;;2.30;2.20;;;;;;;21.34;47.09;98577.06;5054716;28;20197;-56
2021/09/24 04:44:48;;;;;;;1.77;1.67;;;;;;;21.37;47.63;98585.47;5055002;28;20521;-56
2021/09/24 04:47:14;;;;;;;2.20;2.10;;;;;;;21.39;47.12;98583.50;5055119;28;20544;-56
2021/09/24 04:49:41;;;;;;;1.90;1.80;;;;;;;21.39;47.11;98588.81;5054522;28;20209;-54
2021/09/24 04:52:07;;;;;;;2.40;2.20;;;;;;;21.39;47.15;98580.84;5054867;28;20189;-57
2021/09/24 04:54:34;;;;;;;2.00;1.90;;;;;;;21.39;47.22;98585.31;5054523;28;20260;-56
2021/09/24 04:57:00;;;;;;;2.27;2.03;;;;;;;21.40;47.11;98586.97;5054483;28;20192;-56
2021/09/24 04:59:41;;;;;;;2.13;2.00;;;;;;;21.38;47.22;98584.47;5052808;28;20233;-56
2021/09/24 05:02:07;;;;;;;1.90;1.80;;;;;;;21.37;47.23;98584.66;5054402;28;20659;-56
2021/09/24 05:04:34;;;;;;;2.07;1.97;;;;;;;21.37;47.34;98587.31;5054376;28;20181;-57
2021/09/24 05:07:00;;;;;;;2.20;2.10;;;;;;;21.39;46.88;98590.63;5054842;28;20196;-56
2021/09/24 05:09:27;;;;;;;2.07;1.97;;;;;;;21.42;47.22;98590.25;5054685;28;20212;-56
2021/09/24 05:11:53;;;;;;;2.30;2.07;;;;;;;21.45;46.82;98589.09;5054361;28;20188;-56
2021/09/24 05:14:20;;;;;;;2.20;2.10;;;;;;;21.49;46.87;98593.03;5054091;28;20234;-56
2021/09/24 05:16:46;;;;;;;2.30;2.10;;;;;;;21.52;46.90;98596.16;5053252;28;20244;-56
2021/09/24 05:19:13;;;;;;;2.10;2.00;;;;;;;21.56;46.73;98592.16;5054072;28;20211;-56
2021/09/24 05:21:39;;;;;;;2.20;2.00;;;;;;;21.56;47.17;98588.69;5054051;28;20181;-57
2021/09/24 05:24:05;;;;;;;1.90;1.80;;;;;;;21.55;46.78;98593.16;5053948;28;20189;-56
2021/09/24 05:26:32;;;;;;;2.00;1.90;;;;;;;21.56;47.12;98586.84;5053895;28;20197;-56
2021/09/24 05:28:59;;;;;;;2.20;2.10;;;;;;;21.58;47.10;98583.19;5053815;28;20264;-55
2021/09/24 05:31:25;;;;;;;2.10;2.00;;;;;;;21.58;46.95;98583.19;5053758;28;20255;-55
2021/09/24 05:33:52;;;;;;;2.20;2.10;;;;;;;21.57;47.23;98582.38;5052724;28;20266;-55
2021/09/24 05:36:19;;;;;;;2.43;1.93;;;;;;;21.58;47.44;98584.03;5053759;28;20258;-57
2021/09/24 05:38:45;;;;;;;2.13;1.93;;;;;;;21.59;47.31;98587.47;5053611;28;20212;-57
2021/09/24 05:41:12;;;;;;;1.80;1.70;;;;;;;21.64;47.25;98583.28;5053721;28;20245;-57
2021/09/24 05:43:39;;;;;;;2.00;1.80;;;;;;;21.67;47.33;98584.81;5054105;28;20201;-55
2021/09/24 05:46:05;;;;;;;2.00;1.90;;;;;;;21.73;47.27;98580.63;5053583;28;20199;-55
2021/09/24 05:48:32;;;;;;;2.20;2.00;;;;;;;21.75;47.29;98584.72;5053463;28;20206;-57
2021/09/24 05:50:59;;;;;;;1.90;1.80;;;;;;;21.79;47.09;98588.69;5053476;28;20318;-56
2021/09/24 05:53:25;;;;;;;2.73;2.03;;;;;;;21.84;47.00;98586.31;5053524;28;20243;-57
2021/09/24 05:55:52;;;;;;;2.00;1.90;;;;;;;21.88;46.97;98588.63;5052096;28;20216;-57
2021/09/24 05:58:18;;;;;;;2.20;2.00;;;;;;;21.91;46.93;98590.91;5053349;28;20253;-57
2021/09/24 06:00:44;;;;;;;2.07;1.97;;;;;;;21.94;46.67;98594.03;5053632;28;20196;-57
2021/09/24 06:03:11;;;;;;;2.03;1.93;;;;;;;21.95;46.68;98594.84;5053846;28;20592;-57
2021/09/24 06:05:38;;;;;;;2.20;2.10;;;;;;;21.97;46.81;98595.50;5053850;28;20189;-57
2021/09/24 06:08:04;;;;;;;2.00;1.90;;;;;;;21.99;46.75;98593.50;5053155;28;20210;-56
2021/09/24 06:10:31;;;;;;;2.27;2.10;;;;;;;22.00;46.73;98592.50;5053684;28;20263;-58
2021/09/24 06:12:57;;;;;;;2.20;2.00;;;;;;;21.98;46.42;98597.97;5053134;28;20193;-56
2021/09/24 06:15:26;;;;;;;2.17;1.87;;;;;;;21.96;46.33;98596.53;5053338;28;20205;-54
2021/09/24 06:17:52;;;;;;;2.27;2.10;;;;;;;21.97;46.62;98592.84;5053713;28;20211;-55
2021/09/24 06:20:19;;;;;;;2.40;2.03;;;;;;;21.97;46.69;98596.31;5054525;28;20627;-57
2021/09/24 06:22:46;;;;;;;2.10;2.00;;;;;;;22.04;46.48;98599.09;5054277;28;20202;-56
2021/09/24 06:25:13;;;;;;;1.80;1.70;;;;;;;22.09;46.10;98604.69;5053354;28;20182;-56
2021/09/24 06:27:40;;;;;;;2.07;1.90;;;;;;;22.11;46.25;98602.69;5052810;28;20205;-56
2021/09/24 06:30:09;;;;;;;2.57;2.37;;;;;;;22.10;46.26;98605.53;5053264;28;20656;-56
2021/09/24 06:32:36;;;;;;;2.60;2.40;;;;;;;22.09;46.34;98603.88;5052752;28;20248;-56
2021/09/24 06:35:03;;;;;;;2.00;1.90;;;;;;;22.10;46.22;98601.00;5052829;28;20266;-56
2021/09/24 06:37:29;;;;;;;2.20;2.07;;;;;;;22.10;46.60;98606.31;5051620;28;20662;-55
2021/09/24 06:39:56;;;;;;;2.00;1.90;;;;;;;22.09;46.43;98606.53;5052846;28;20189;-56
2021/09/24 06:42:23;;;;;;;2.37;2.27;;;;;;;22.11;46.67;98604.50;5052920;28;20596;-58
2021/09/24 06:44:50;;;;;;;3.67;2.00;;;;;;;22.11;46.62;98600.03;5053524;28;20647;-56
2021/09/24 06:47:18;;;;;;;2.10;2.00;;;;;;;22.09;46.69;98604.69;5051373;28;20199;-55
2021/09/24 06:49:45;;;;;;;2.40;2.20;;;;;;;22.08;46.64;98605.69;5051569;28;20243;-56
2021/09/24 06:52:12;;;;;;;2.60;2.33;;;;;;;22.09;46.61;98610.00;5052639;28;20196;-56
2021/09/24 06:54:38;;;;;;;3.07;2.30;;;;;;;22.11;46.53;98605.34;5052884;28;20263;-56
2021/09/24 06:57:05;;;;;;;2.30;2.10;;;;;;;22.10;46.56;98608.19;5052907;28;20197;-56
2021/09/24 06:59:32;;;;;;;2.20;2.00;;;;;;;22.05;46.53;98608.72;5052534;28;20205;-56
2021/09/24 07:01:59;;;;;;;2.03;1.93;;;;;;;22.07;46.40;98608.53;5052468;28;20686;-56
2021/09/24 07:04:26;;;;;;;2.10;2.00;;;;;;;22.07;46.40;98609.34;5052833;28;20191;-56
2021/09/24 07:06:52;;;;;;;2.17;1.97;;;;;;;22.08;46.29;98615.50;5052759;28;20193;-55
2021/09/24 07:09:19;;;;;;;2.20;2.10;;;;;;;22.11;46.56;98610.66;5052439;28;20251;-55
2021/09/24 07:11:48;;;;;;;2.20;2.10;;;;;;;22.11;46.13;98610.66;5052506;28;20203;-56
2021/09/24 07:14:17;;;;;;;2.50;2.13;;;;;;;22.14;46.16;98619.28;5052710;28;20656;-55
2021/09/24 07:16:46;;;;;;;2.47;2.37;;;;;;;22.12;46.44;98617.63;5052405;28;20196;-56
2021/09/24 07:19:13;;;;;;;2.27;2.17;;;;;;;22.07;46.37;98619.16;5052377;28;20220;-56
2021/09/24 07:21:40;;;;;;;2.43;2.23;;;;;;;22.03;46.69;98624.00;5052740;28;20264;-56
2021/09/24 07:24:07;;;;;;;2.50;2.30;;;;;;;21.99;46.58;98622.72;5052401;28;20190;-56
2021/09/24 07:26:34;;;;;;;2.43;2.20;;;;;;;22.02;46.61;98625.03;5052331;28;20202;-57
2021/09/24 07:29:02;;;;;;;2.30;2.10;;;;;;;22.03;46.77;98623.16;5052260;28;20212;-56
2021/09/24 07:31:28;;;;;;;2.10;2.00;;;;;;;22.05;46.63;98621.19;5052214;28;20209;-56
2021/09/24 07:33:55;;;;;;;2.33;2.20;;;;;;;21.97;46.86;98609.59;5052208;28;20197;-57
2021/09/24 07:36:22;;;;;;;2.20;2.00;;;;;;;22.01;46.73;98620.72;5052194;28;20206;-57
2021/09/24 07:38:50;;;;;;;2.50;2.30;;;;;;;22.06;46.54;98626.31;5052926;28;20208;-58
2021/09/24 07:41:18;;;;;;;2.90;2.70;;;;;;;22.07;46.53;98616.50;5055889;28;20238;-58
2021/09/24 07:43:48;;;;;;;2.90;2.70;;;;;;;22.11;46.62;98620.44;5055747;28;20195;-57
2021/09/24 07:46:16;;;;;;;2.37;2.27;;;;;;;22.14;46.68;98621.94;5055810;28;20169;-58
2021/09/24 07:48:43;;;;;;;2.50;2.30;;;;;;;22.14;46.63;98624.59;5055674;28;20217;-56
2021/09/24 07:51:11;;;;;;;2.40;2.30;;;;;;;22.14;46.82;98616.63;5055888;28;20189;-58
2021/09/24 07:53:38;;;;;;;2.17;2.07;;;;;;;22.15;46.94;98626.25;5055598;28;20235;-57
2021/09/24 07:56:05;;;;;;;2.20;2.03;;;;;;;22.15;46.96;98623.59;5055724;28;20212;-57
2021/09/24 07:58:33;;;;;;;2.20;2.00;;;;;;;22.17;47.14;98624.22;5056053;28;20771;-58
2021/09/24 08:00:59;;;;;;;2.10;2.00;;;;;;;22.18;47.03;98620.56;5055490;28;20188;-58
2021/09/24 08:03:26;;;;;;;2.37;2.23;;;;;;;22.18;47.50;98625.88;5055413;28;20658;-57
2021/09/24 08:05:53;;;;;;;2.40;2.20;;;;;;;22.17;47.53;98618.91;5054178;28;20208;-58
2021/09/24 08:08:19;;;;;;;2.10;2.00;;;;;;;22.16;47.43;98625.25;5055285;28;20221;-55
2021/09/24 08:10:46;;;;;;;2.80;2.50;;;;;;;22.13;47.43;98618.44;5055256;28;20195;-56
2021/09/24 08:13:12;;;;;;;2.83;2.17;;;;;;;22.14;47.12;98616.63;5055293;28;20192;-56
2021/09/24 08:15:43;;;;;;;2.37;2.20;;;;;;;22.17;47.08;98626.88;5055582;28;20262;-56
2021/09/24 08:18:11;;;;;;;4.97;2.20;;;;;;;22.21;46.84;98622.84;5055146;28;20208;-54
2021/09/24 08:20:39;;;;;;;2.30;2.10;;;;;;;22.26;46.73;98628.44;5055018;28;20193;-55
2021/09/24 08:23:06;;;;;;;2.63;2.40;;;;;;;22.29;46.79;98622.78;5055566;28;20545;-56
2021/09/24 08:25:33;;;;;;;2.10;1.90;;;;;;;22.29;46.89;98625.44;5054995;28;20208;-56
2021/09/24 08:27:59;;;;;;;2.73;2.40;;;;;;;22.33;46.74;98617.91;5054935;28;20259;-56
2021/09/24 08:30:27;;;;;;;2.70;2.50;;;;;;;;;;5054923;28;20190;-56
2021/09/24 08:32:55;;;;;;;3.70;2.50;;;;;;;22.32;47.21;98619.75;5055228;28;20247;-54
2021/09/24 08:35:23;;;;;;;2.80;2.53;;;;;;;22.30;47.71;98615.63;5054756;28;20216;-55
2021/09/24 08:37:50;;;;;;;2.83;2.33;;;;;;;22.29;47.57;98619.28;5054963;28;20267;-55
2021/09/24 08:40:18;;;;;;;3.93;2.20;;;;;;;22.27;47.49;98616.78;5054749;28;20683;-56
2021/09/24 08:42:46;;;;;;;2.63;2.33;;;;;;;22.28;47.65;98623.78;5055196;28;20624;-56
2021/09/24 08:45:26;;;;;;;3.23;2.43;;;;;;;22.29;47.36;98617.47;5054893;28;20244;-57
2021/09/24 08:47:58;;;;;;;2.67;2.47;;;;;;;22.33;47.27;98617.91;5054725;28;20205;-56
2021/09/24 08:50:27;;;;;;;2.90;2.43;;;;;;;22.37;47.23;98616.56;5055204;28;20178;-56
2021/09/24 08:52:53;;;;;;;2.60;2.40;;;;;;;22.35;47.44;98619.38;5055104;28;20193;-56
2021/09/24 08:55:20;;;;;;;2.70;2.50;;;;;;;22.34;46.98;98615.09;5054403;28;20237;-56
2021/09/24 08:57:48;;;;;;;2.73;2.50;;;;;;;22.33;47.31;98612.59;5054322;28;20259;-56
2021/09/24 09:00:15;;;;;;;2.43;2.23;;;;;;;22.30;47.24;98616.47;5054329;28;20197;-56
2021/09/24 09:03:13;;;;;;;2.57;2.30;;;;;;;22.30;47.40;98607.66;5054556;28;20189;-59
2021/09/24 09:05:47;;;;;;;3.87;3.30;;;;;;;22.24;47.45;98603.88;5054507;28;20273;-58
2021/09/24 09:08:24;;;;;;;2.87;2.60;;;;;;;22.22;47.19;98616.53;5054640;28;20224;-58
2021/09/24 09:10:59;;;;;;;2.50;2.30;;;;;;;22.22;47.13;98608.56;5054476;28;20184;-58
2021/09/24 09:13:35;;;;;;;3.57;2.57;;;;;;;22.18;47.40;98610.75;5054229;28;20257;-58
2021/09/24 09:16:06;;;;;;;3.20;2.50;;;;;;;22.14;47.49;98604.16;5054140;28;20527;-58
2021/09/24 09:18:38;;;;;;;3.40;2.73;;;;;;;22.13;47.49;98607.81;5054098;28;20259;-60
2021/09/24 09:21:08;;;;;;;2.80;2.60;;;;;;;22.14;47.29;98601.47;5054173;28;20210;-58
2021/09/24 09:23:37;;;;;;;5.33;3.17;;;;;;;22.15;47.23;98612.97;5054140;28;20193;-58
2021/09/24 09:26:07;;;;;;;4.53;3.03;;;;;;;22.19;47.10;98609.72;5053771;28;20552;-57
2021/09/24 09:28:38;;;;;;;3.70;2.93;;;;;;;22.23;47.13;98602.22;5054136;28;20209;-59
2021/09/24 09:31:23;;;;;;;2.93;2.70;;;;;;;22.29;46.97;98606.84;5053648;28;20260;-59
2021/09/24 09:33:58;;;;;;;2.53;2.33;;;;;;;22.33;46.79;98601.97;5053784;28;20541;-59
2021/09/24 09:36:28;;;;;;;3.57;2.80;;;;;;;22.35;46.70;98600.78;5053722;28;20284;-59
2021/09/24 09:38:57;;;;;;;3.43;2.97;;;;;;;22.38;46.66;98610.22;5054112;28;20212;-59
2021/09/24 09:41:25;;;;;;;3.33;2.90;;;;;;;22.44;46.53;98612.16;5053613;28;20186;-59
2021/09/24 09:43:56;;;;;;;3.10;2.90;;;;;;;22.42;46.85;98611.50;5053557;28;20195;-59
2021/09/24 09:46:26;;;;;;;2.90;2.70;;;;;;;22.40;46.81;98608.22;5053806;28;20211;-60
2021/09/24 09:49:02;;;;;;;3.93;3.17;;;;;;;22.40;46.80;98616.19;5053551;28;20748;-58
2021/09/24 09:51:29;;;;;;;3.73;2.70;;;;;;;22.36;46.76;98602.44;5053783;28;20711;-56
2021/09/24 09:53:56;;;;;;;3.50;2.77;;;;;;;22.37;46.89;98608.59;5053742;28;20186;-51
2021/09/24 09:56:34;;;;;;;3.27;2.93;;;;;;;22.36;46.72;98615.72;5051908;28;20213;-56
2021/09/24 09:59:00;;;;;;;3.37;3.07;;;;;;;22.31;46.98;98609.28;5053301;28;20629;-57
2021/09/24 10:01:27;;;;;;;3.43;3.10;;;;;;;22.32;47.08;98613.59;5052912;28;20189;-57
2021/09/24 10:03:57;;;;;;;2.97;2.77;;;;;;;22.30;46.86;98612.97;5053081;28;20269;-57
2021/09/24 10:06:32;;;;;;;4.17;3.20;;;;;;;22.26;46.94;98605.34;5053304;28;20204;-57
2021/09/24 10:09:01;;;;;;;3.77;3.00;;;;;;;22.24;47.11;98604.72;5053037;28;20213;-56
2021/09/24 10:11:30;;;;;;;3.20;2.97;;;;;;;22.21;47.17;98610.41;5053013;28;20186;-57
2021/09/24 10:14:13;;;;;;;2.97;2.73;;;;;;;22.24;47.15;98606.53;5052952;28;20599;-57
2021/09/24 10:16:44;;;;;;;2.97;2.77;;;;;;;22.27;46.84;98606.16;5053125;28;20659;-57
2021/09/24 10:19:12;;;;;;;3.17;2.93;;;;;;;22.30;46.67;98605.81;5053183;28;20244;-57
2021/09/24 10:21:51;;;;;;;2.83;2.63;;;;;;;22.35;46.58;98603.44;5052906;28;20169;-57
2021/09/24 10:24:18;;;;;;;3.40;2.83;;;;;;;22.32;46.74;98600.31;5052819;28;20201;-57
2021/09/24 10:26:57;;;;;;;3.97;2.87;;;;;;;22.30;46.74;98603.16;5052699;28;20552;-57
2021/09/24 10:29:29;;;;;;;2.83;2.50;;;;;;;22.30;46.92;98602.31;5053038;28;20275;-57
2021/09/24 10:32:12;;;;;;;3.00;2.70;;;;;;;22.30;46.92;98600.50;5052955;28;20193;-57
2021/09/24 10:35:12;;;;;;;2.60;2.40;;;;;;;22.21;46.98;98604.25;5053028;28;20181;-57
2021/09/24 10:37:41;;;;;;;2.80;2.50;;;;;;;22.19;47.04;98600.94;5029685;28;20631;-56
2021/09/24 10:40:20;;;;;;;2.80;2.60;;;;;;;22.19;46.99;98600.94;5052721;28;20193;-56
2021/09/24 10:42:51;;;;;;;3.23;2.60;;;;;;;22.20;46.92;98591.97;5052917;28;20180;-57
2021/09/24 10:45:30;;;;;;;2.90;2.60;;;;;;;22.18;47.01;98593.97;5052669;28;20212;-58
2021/09/24 10:48:17;;;;;;;2.60;2.40;;;;;;;22.16;46.92;98607.44;5052782;28;20213;-57
2021/09/24 10:50:45;;;;;;;2.90;2.43;;;;;;;22.16;47.14;98594.16;5052719;28;20176;-57
2021/09/24 10:53:17;;;;;;;2.90;2.70;;;;;;;22.17;47.07;98597.66;5052813;28;20216;-57
2021/09/24 10:55:53;;;;;;;2.70;2.50;;;;;;;22.15;46.96;98587.19;5052971;28;20209;-57
2021/09/24 10:58:31;;;;;;;2.70;2.50;;;;;;;22.17;47.00;98595.00;5052553;28;20255;-56
2021/09/24 11:01:06;;;;;;;2.60;2.40;;;;;;;22.20;46.90;98589.31;5052764;28;20193;-57
2021/09/24 11:03:48;;;;;;;2.50;2.30;;;;;;;22.20;47.07;98587.50;5051410;28;20605;-57
2021/09/24 11:06:15;;;;;;;2.80;2.60;;;;;;;22.18;47.05;98593.97;5052790;28;20181;-57
2021/09/24 11:08:43;;;;;;;2.87;2.67;;;;;;;22.19;47.10;98579.69;5052584;28;20219;-57
2021/09/24 11:11:20;;;;;;;2.70;2.50;;;;;;;22.20;47.18;98578.69;5052640;28;20231;-57
2021/09/24 11:13:48;;;;;;;2.57;2.37;;;;;;;22.20;46.98;98586.66;5052616;28;20177;-56
2021/09/24 11:16:21;;;;;;;2.97;2.67;;;;;;;22.20;46.91;98570.69;5056174;28;20209;-56
2021/09/24 11:18:50;;;;;;;2.43;2.23;;;;;;;22.22;47.00;98572.19;5056149;28;20749;-57
2021/09/24 11:21:20;;;;;;;2.43;2.20;;;;;;;22.26;47.08;98564.63;5056199;28;20193;-57
2021/09/24 11:23:49;;;;;;;2.63;2.43;;;;;;;22.28;47.13;98565.31;5056131;28;20672;-56
2021/09/24 11:26:24;;;;;;;2.43;2.23;;;;;;;22.27;47.10;98563.63;5056071;28;20643;-57
2021/09/24 11:29:11;;;;;;;2.67;2.47;;;;;;;22.25;47.17;98558.50;5056013;28;20690;-57
2021/09/24 11:31:53;;;;;;;2.60;2.40;;;;;;;22.29;46.82;98564.31;5056252;28;20201;-57
2021/09/24 11:34:43;;;;;;;2.70;2.50;;;;;;;22.28;46.86;98565.31;5056260;28;20205;-57
2021/09/24 11:37:23;;;;;;;2.57;2.40;;;;;;;22.27;46.75;98558.31;5056377;28;20201;-57
2021/09/24 11:40:05;;;;;;;3.10;2.43;;;;;;;22.27;46.81;98556.50;5056040;28;20174;-58
2021/09/24 11:42:34;;;;;;;2.57;2.37;;;;;;;22.26;46.89;98564.63;5055808;28;20177;-57
2021/09/24 11:45:04;;;;;;;2.77;2.57;;;;;;;22.25;46.83;98555.84;5055694;28;20197;-57
2021/09/24 11:47:32;;;;;;;2.30;2.10;;;;;;;22.25;47.05;98557.69;5055923;28;20239;-57
2021/09/24 11:50:04;;;;;;;2.70;2.50;;;;;;;22.26;46.73;98554.84;5055615;28;20239;-57